sensor_id;sensor_type;location;lat;lon;timestamp;pressure;altitude;pressure_sealevel;temperature;humidity
51528;BME280;37612;51.768;21.590;2023-12-04T00:00:06;100383.30;;;-3.37;100.00
51528;BME280;37612;51.768;21.590;2023-12-04T00:04:08;100382.89;;;-3.38;100.00
51528;BME280;37612;51.768;21.590;2023-12-04T00:08:09;100386.67;;;-3.39;100.00
51528;BME280;37612;51.768;21.590;2023-12-04T00:12:12;100389.25;;;-3.41;100.00
51528;BME280;37612;51.768;21.590;2023-12-04T00:16:13;100393.44;;;-3.37;100.00
51528;BME280;37612;51.768;21.590;2023-12-04T00:20:15;100395.51;;;-3.35;100.00
51528;BME280;37612;51.768;21.590;2023-12-04T00:24:16;100399.27;;;-3.37;100.00
51528;BME280;37612;51.768;21.590;2023-12-04T00:28:17;100398.21;;;-3.38;100.00
51528;BME280;37612;51.768;21.590;2023-12-04T00:32:18;100397.29;;;-3.36;100.00
51528;BME280;37612;51.768;21.590;2023-12-04T00:36:20;100393.60;;;-3.32;100.00
51528;BME280;37612;51.768;21.590;2023-12-04T00:40:22;100390.15;;;-3.31;100.00
51528;BME280;37612;51.768;21.590;2023-12-04T00:44:23;100392.77;;;-3.32;100.00
51528;BME280;37612;51.768;21.590;2023-12-04T00:48:25;100391.34;;;-3.34;100.00
51528;BME280;37612;51.768;21.590;2023-12-04T00:52:26;100390.95;;;-3.30;100.00
51528;BME280;37612;51.768;21.590;2023-12-04T00:56:27;100393.39;;;-3.26;100.00
51528;BME280;37612;51.768;21.590;2023-12-04T01:00:28;100393.61;;;-3.27;100.00
51528;BME280;37612;51.768;21.590;2023-12-04T01:04:31;100393.89;;;-3.30;100.00
51528;BME280;37612;51.768;21.590;2023-12-04T01:08:32;100396.91;;;-3.27;100.00
51528;BME280;37612;51.768;21.590;2023-12-04T01:12:33;100398.64;;;-3.23;100.00
51528;BME280;37612;51.768;21.590;2023-12-04T01:16:34;100398.11;;;-3.23;100.00
51528;BME280;37612;51.768;21.590;2023-12-04T01:20:36;100401.13;;;-3.26;100.00
51528;BME280;37612;51.768;21.590;2023-12-04T01:24:41;100400.55;;;-3.25;100.00
51528;BME280;37612;51.768;21.590;2023-12-04T01:28:42;100400.73;;;-3.22;100.00
51528;BME280;37612;51.768;21.590;2023-12-04T01:32:44;100403.93;;;-3.22;100.00
51528;BME280;37612;51.768;21.590;2023-12-04T01:36:45;100411.25;;;-3.24;100.00
51528;BME280;37612;51.768;21.590;2023-12-04T01:40:46;100419.84;;;-3.25;100.00
51528;BME280;37612;51.768;21.590;2023-12-04T01:44:47;100412.29;;;-3.22;100.00
51528;BME280;37612;51.768;21.590;2023-12-04T01:48:49;100418.49;;;-3.22;100.00
51528;BME280;37612;51.768;21.590;2023-12-04T01:52:52;100416.91;;;-3.23;100.00
51528;BME280;37612;51.768;21.590;2023-12-04T01:56:58;100410.46;;;-3.21;100.00
51528;BME280;37612;51.768;21.590;2023-12-04T02:01:00;100411.17;;;-3.20;100.00
51528;BME280;37612;51.768;21.590;2023-12-04T02:05:05;100411.01;;;-3.20;100.00
51528;BME280;37612;51.768;21.590;2023-12-04T02:09:09;100411.09;;;-3.21;100.00
51528;BME280;37612;51.768;21.590;2023-12-04T02:13:13;100412.55;;;-3.17;100.00
51528;BME280;37612;51.768;21.590;2023-12-04T02:17:16;100410.97;;;-3.15;100.00
51528;BME280;37612;51.768;21.590;2023-12-04T02:21:17;100408.47;;;-3.15;100.00
51528;BME280;37612;51.768;21.590;2023-12-04T02:25:18;100406.90;;;-3.17;100.00
51528;BME280;37612;51.768;21.590;2023-12-04T02:29:26;100403.39;;;-3.15;100.00
51528;BME280;37612;51.768;21.590;2023-12-04T02:33:31;100401.23;;;-3.12;100.00
51528;BME280;37612;51.768;21.590;2023-12-04T02:37:34;100399.70;;;-3.14;100.00
51528;BME280;37612;51.768;21.590;2023-12-04T02:41:35;100399.92;;;-3.18;100.00
51528;BME280;37612;51.768;21.590;2023-12-04T02:45:37;100405.48;;;-3.16;100.00
51528;BME280;37612;51.768;21.590;2023-12-04T02:49:38;100409.45;;;-3.14;100.00
51528;BME280;37612;51.768;21.590;2023-12-04T02:53:40;100415.05;;;-3.13;100.00
51528;BME280;37612;51.768;21.590;2023-12-04T02:57:41;100421.77;;;-3.15;100.00
51528;BME280;37612;51.768;21.590;2023-12-04T03:01:42;100421.92;;;-3.12;100.00
51528;BME280;37612;51.768;21.590;2023-12-04T03:05:44;100428.14;;;-3.10;100.00
51528;BME280;37612;51.768;21.590;2023-12-04T03:09:45;100436.33;;;-3.12;100.00
51528;BME280;37612;51.768;21.590;2023-12-04T03:13:46;100433.45;;;-3.11;100.00
51528;BME280;37612;51.768;21.590;2023-12-04T03:17:47;100433.22;;;-3.08;100.00
51528;BME280;37612;51.768;21.590;2023-12-04T03:21:48;100443.70;;;-3.12;100.00
51528;BME280;37612;51.768;21.590;2023-12-04T03:25:50;100451.71;;;-3.14;100.00
51528;BME280;37612;51.768;21.590;2023-12-04T03:29:51;100451.91;;;-3.11;100.00
51528;BME280;37612;51.768;21.590;2023-12-04T03:33:52;100457.16;;;-3.09;100.00
51528;BME280;37612;51.768;21.590;2023-12-04T03:37:53;100456.83;;;-3.11;100.00
51528;BME280;37612;51.768;21.590;2023-12-04T03:41:55;100465.16;;;-3.11;100.00
51528;BME280;37612;51.768;21.590;2023-12-04T03:45:56;100463.88;;;-3.08;100.00
51528;BME280;37612;51.768;21.590;2023-12-04T03:49:57;100469.77;;;-3.05;100.00
51528;BME280;37612;51.768;21.590;2023-12-04T03:53:58;100468.97;;;-3.07;100.00
51528;BME280;37612;51.768;21.590;2023-12-04T03:58:00;100467.61;;;-3.07;100.00
51528;BME280;37612;51.768;21.590;2023-12-04T04:02:01;100472.53;;;-3.04;100.00
51528;BME280;37612;51.768;21.590;2023-12-04T04:06:02;100478.44;;;-3.01;100.00
51528;BME280;37612;51.768;21.590;2023-12-04T04:10:04;100481.79;;;-3.05;100.00
51528;BME280;37612;51.768;21.590;2023-12-04T04:14:05;100480.31;;;-3.09;100.00
51528;BME280;37612;51.768;21.590;2023-12-04T04:18:06;100485.20;;;-3.09;100.00
51528;BME280;37612;51.768;21.590;2023-12-04T04:22:08;100485.09;;;-3.05;100.00
51528;BME280;37612;51.768;21.590;2023-12-04T04:26:09;100495.14;;;-3.02;100.00
51528;BME280;37612;51.768;21.590;2023-12-04T04:30:10;100495.73;;;-3.05;100.00
51528;BME280;37612;51.768;21.590;2023-12-04T04:34:12;100500.98;;;-3.05;100.00
51528;BME280;37612;51.768;21.590;2023-12-04T04:38:13;100500.97;;;-3.03;100.00
51528;BME280;37612;51.768;21.590;2023-12-04T04:42:15;100500.25;;;-3.05;100.00
51528;BME280;37612;51.768;21.590;2023-12-04T04:46:16;100501.56;;;-3.11;100.00
51528;BME280;37612;51.768;21.590;2023-12-04T04:50:17;100503.78;;;-3.11;100.00
51528;BME280;37612;51.768;21.590;2023-12-04T04:54:19;100501.18;;;-3.12;100.00
51528;BME280;37612;51.768;21.590;2023-12-04T04:58:20;100506.58;;;-3.14;100.00
51528;BME280;37612;51.768;21.590;2023-12-04T05:02:21;100506.42;;;-3.18;100.00
51528;BME280;37612;51.768;21.590;2023-12-04T05:06:23;100510.91;;;-3.16;100.00
51528;BME280;37612;51.768;21.590;2023-12-04T05:10:24;100514.33;;;-3.17;100.00
51528;BME280;37612;51.768;21.590;2023-12-04T05:14:25;100514.42;;;-3.22;100.00
51528;BME280;37612;51.768;21.590;2023-12-04T05:18:29;100512.64;;;-3.23;100.00
51528;BME280;37612;51.768;21.590;2023-12-04T05:22:31;100514.91;;;-3.22;100.00
51528;BME280;37612;51.768;21.590;2023-12-04T05:26:33;100517.50;;;-3.21;100.00
51528;BME280;37612;51.768;21.590;2023-12-04T05:30:34;100519.36;;;-3.23;100.00
51528;BME280;37612;51.768;21.590;2023-12-04T05:34:55;100520.83;;;-3.25;100.00
51528;BME280;37612;51.768;21.590;2023-12-04T05:38:58;100524.85;;;-3.25;100.00
51528;BME280;37612;51.768;21.590;2023-12-04T05:42:59;100528.98;;;-3.21;100.00
51528;BME280;37612;51.768;21.590;2023-12-04T05:47:00;100530.96;;;-3.22;100.00
51528;BME280;37612;51.768;21.590;2023-12-04T05:51:03;100532.42;;;-3.26;100.00
51528;BME280;37612;51.768;21.590;2023-12-04T05:55:04;100534.27;;;-3.26;100.00
51528;BME280;37612;51.768;21.590;2023-12-04T05:59:06;100538.91;;;-3.23;100.00
51528;BME280;37612;51.768;21.590;2023-12-04T06:03:07;100540.23;;;-3.18;100.00
51528;BME280;37612;51.768;21.590;2023-12-04T06:07:09;100537.73;;;-3.17;100.00
51528;BME280;37612;51.768;21.590;2023-12-04T06:11:11;100543.11;;;-3.21;100.00
51528;BME280;37612;51.768;21.590;2023-12-04T06:15:12;100543.30;;;-3.22;100.00
51528;BME280;37612;51.768;21.590;2023-12-04T06:19:14;100548.34;;;-3.20;100.00
51528;BME280;37612;51.768;21.590;2023-12-04T06:23:15;100548.36;;;-3.22;100.00
51528;BME280;37612;51.768;21.590;2023-12-04T06:27:21;100549.34;;;-3.28;100.00
51528;BME280;37612;51.768;21.590;2023-12-04T06:31:24;100550.70;;;-3.35;100.00
51528;BME280;37612;51.768;21.590;2023-12-04T06:35:28;100552.77;;;-3.33;100.00
51528;BME280;37612;51.768;21.590;2023-12-04T06:39:32;100553.20;;;-3.32;100.00
51528;BME280;37612;51.768;21.590;2023-12-04T06:43:34;100549.35;;;-3.36;100.00
51528;BME280;37612;51.768;21.590;2023-12-04T06:47:49;100551.23;;;-3.43;100.00
51528;BME280;37612;51.768;21.590;2023-12-04T06:51:54;100556.83;;;-3.41;100.00
51528;BME280;37612;51.768;21.590;2023-12-04T06:56:02;100559.89;;;-3.38;100.00
51528;BME280;37612;51.768;21.590;2023-12-04T07:00:04;100559.38;;;-3.38;100.00
51528;BME280;37612;51.768;21.590;2023-12-04T07:04:07;100563.00;;;-3.40;100.00
51528;BME280;37612;51.768;21.590;2023-12-04T07:08:10;100570.02;;;-3.39;100.00
51528;BME280;37612;51.768;21.590;2023-12-04T07:12:11;100568.18;;;-3.32;100.00
51528;BME280;37612;51.768;21.590;2023-12-04T07:16:13;100568.77;;;-3.33;100.00
51528;BME280;37612;51.768;21.590;2023-12-04T07:20:14;100571.50;;;-3.36;100.00
51528;BME280;37612;51.768;21.590;2023-12-04T07:24:15;100571.60;;;-3.39;100.00
51528;BME280;37612;51.768;21.590;2023-12-04T07:28:17;100572.10;;;-3.35;100.00
51528;BME280;37612;51.768;21.590;2023-12-04T07:32:18;100579.19;;;-3.29;100.00
51528;BME280;37612;51.768;21.590;2023-12-04T07:36:19;100583.89;;;-3.27;100.00
51528;BME280;37612;51.768;21.590;2023-12-04T07:40:20;100586.90;;;-3.28;100.00
51528;BME280;37612;51.768;21.590;2023-12-04T07:44:23;100591.38;;;-3.27;100.00
51528;BME280;37612;51.768;21.590;2023-12-04T07:48:25;100593.39;;;-3.23;100.00
51528;BME280;37612;51.768;21.590;2023-12-04T07:52:26;100596.73;;;-3.22;100.00
51528;BME280;37612;51.768;21.590;2023-12-04T07:56:27;100590.16;;;-3.20;100.00
51528;BME280;37612;51.768;21.590;2023-12-04T08:00:28;100588.98;;;-3.16;100.00
51528;BME280;37612;51.768;21.590;2023-12-04T08:04:29;100596.62;;;-3.16;100.00
51528;BME280;37612;51.768;21.590;2023-12-04T08:08:31;100594.72;;;-3.11;100.00
51528;BME280;37612;51.768;21.590;2023-12-04T08:12:33;100600.91;;;-3.03;100.00
51528;BME280;37612;51.768;21.590;2023-12-04T08:16:36;100604.48;;;-3.00;100.00
51528;BME280;37612;51.768;21.590;2023-12-04T08:20:38;100608.59;;;-3.00;100.00
51528;BME280;37612;51.768;21.590;2023-12-04T08:24:39;100605.69;;;-2.97;100.00
51528;BME280;37612;51.768;21.590;2023-12-04T08:28:40;100611.54;;;-2.89;100.00
51528;BME280;37612;51.768;21.590;2023-12-04T08:32:43;100611.55;;;-2.80;100.00
51528;BME280;37612;51.768;21.590;2023-12-04T08:36:44;100615.70;;;-2.78;100.00
51528;BME280;37612;51.768;21.590;2023-12-04T08:40:46;100619.67;;;-2.79;100.00
51528;BME280;37612;51.768;21.590;2023-12-04T08:44:47;100621.71;;;-2.75;100.00
51528;BME280;37612;51.768;21.590;2023-12-04T08:48:48;100623.02;;;-2.63;100.00
51528;BME280;37612;51.768;21.590;2023-12-04T08:52:49;100617.59;;;-2.54;100.00
51528;BME280;37612;51.768;21.590;2023-12-04T08:56:50;100611.85;;;-2.44;100.00
51528;BME280;37612;51.768;21.590;2023-12-04T09:00:52;100614.07;;;-2.29;100.00
51528;BME280;37612;51.768;21.590;2023-12-04T09:04:53;100619.64;;;-2.06;100.00
51528;BME280;37612;51.768;21.590;2023-12-04T09:08:54;100622.84;;;-1.86;100.00
51528;BME280;37612;51.768;21.590;2023-12-04T09:12:55;100626.19;;;-1.74;100.00
51528;BME280;37612;51.768;21.590;2023-12-04T09:16:57;100624.02;;;-1.69;100.00
51528;BME280;37612;51.768;21.590;2023-12-04T09:20:58;100621.58;;;-1.69;100.00
51528;BME280;37612;51.768;21.590;2023-12-04T09:24:59;100627.39;;;-1.69;100.00
51528;BME280;37612;51.768;21.590;2023-12-04T09:29:01;100625.91;;;-1.64;100.00
51528;BME280;37612;51.768;21.590;2023-12-04T09:33:02;100626.50;;;-1.58;100.00
51528;BME280;37612;51.768;21.590;2023-12-04T09:37:03;100629.02;;;-1.59;100.00
51528;BME280;37612;51.768;21.590;2023-12-04T09:41:06;100625.73;;;-1.66;100.00
51528;BME280;37612;51.768;21.590;2023-12-04T09:45:11;100620.86;;;-1.68;100.00
51528;BME280;37612;51.768;21.590;2023-12-04T09:49:13;100620.79;;;-1.67;100.00
51528;BME280;37612;51.768;21.590;2023-12-04T09:53:15;100613.89;;;-1.59;100.00
51528;BME280;37612;51.768;21.590;2023-12-04T09:57:16;100612.72;;;-1.53;100.00
51528;BME280;37612;51.768;21.590;2023-12-04T10:01:19;100606.13;;;-1.47;100.00
51528;BME280;37612;51.768;21.590;2023-12-04T10:05:22;100608.48;;;-1.41;100.00
51528;BME280;37612;51.768;21.590;2023-12-04T10:09:23;100606.28;;;-1.36;100.00
51528;BME280;37612;51.768;21.590;2023-12-04T10:13:26;100597.58;;;-1.23;100.00
51528;BME280;37612;51.768;21.590;2023-12-04T10:17:28;100598.56;;;-1.02;100.00
51528;BME280;37612;51.768;21.590;2023-12-04T10:21:34;100601.35;;;-0.87;100.00
51528;BME280;37612;51.768;21.590;2023-12-04T10:25:35;100597.46;;;-0.76;100.00
51528;BME280;37612;51.768;21.590;2023-12-04T10:29:42;100594.36;;;-0.65;100.00
51528;BME280;37612;51.768;21.590;2023-12-04T10:33:47;100598.34;;;-0.55;100.00
51528;BME280;37612;51.768;21.590;2023-12-04T10:37:53;100596.60;;;-0.52;100.00
51528;BME280;37612;51.768;21.590;2023-12-04T10:42:02;100598.86;;;-0.57;100.00
51528;BME280;37612;51.768;21.590;2023-12-04T10:46:04;100596.05;;;-0.45;100.00
51528;BME280;37612;51.768;21.590;2023-12-04T10:50:05;100595.09;;;-0.28;100.00
51528;BME280;37612;51.768;21.590;2023-12-04T10:54:08;100597.33;;;-0.19;100.00
51528;BME280;37612;51.768;21.590;2023-12-04T10:58:14;100598.63;;;-0.15;100.00
51528;BME280;37612;51.768;21.590;2023-12-04T11:02:19;100603.59;;;-0.03;100.00
51528;BME280;37612;51.768;21.590;2023-12-04T11:06:24;100599.60;;;0.04;100.00
51528;BME280;37612;51.768;21.590;2023-12-04T11:10:29;100594.47;;;0.02;100.00
51528;BME280;37612;51.768;21.590;2023-12-04T11:14:39;100601.25;;;-0.02;100.00
51528;BME280;37612;51.768;21.590;2023-12-04T11:18:44;100600.10;;;-0.13;99.99
51528;BME280;37612;51.768;21.590;2023-12-04T11:22:50;100596.82;;;-0.16;100.00
51528;BME280;37612;51.768;21.590;2023-12-04T11:26:53;100594.96;;;-0.15;100.00
51528;BME280;37612;51.768;21.590;2023-12-04T11:30:55;100592.08;;;-0.13;99.75
51528;BME280;37612;51.768;21.590;2023-12-04T11:34:59;100595.55;;;-0.24;99.36
51528;BME280;37612;51.768;21.590;2023-12-04T11:39:03;100597.43;;;-0.46;98.90
51528;BME280;37612;51.768;21.590;2023-12-04T11:43:26;100596.98;;;-0.67;98.93
51528;BME280;37612;51.768;21.590;2023-12-04T11:47:28;100595.11;;;-0.76;99.39
51528;BME280;37612;51.768;21.590;2023-12-04T11:55:41;100598.81;;;-0.73;99.27
51528;BME280;37612;51.768;21.590;2023-12-04T11:59:45;100598.24;;;-0.76;99.35
51528;BME280;37612;51.768;21.590;2023-12-04T12:03:50;100587.54;;;-0.78;99.15
51528;BME280;37612;51.768;21.590;2023-12-04T12:07:52;100586.96;;;-0.85;99.32
51528;BME280;37612;51.768;21.590;2023-12-04T12:11:53;100589.32;;;-0.87;99.07
51528;BME280;37612;51.768;21.590;2023-12-04T12:15:55;100586.41;;;-0.87;98.81
51528;BME280;37612;51.768;21.590;2023-12-04T12:19:56;100587.27;;;-0.94;98.80
51528;BME280;37612;51.768;21.590;2023-12-04T12:23:58;100584.87;;;-1.01;98.69
51528;BME280;37612;51.768;21.590;2023-12-04T12:28:02;100579.73;;;-1.12;98.59
51528;BME280;37612;51.768;21.590;2023-12-04T12:32:05;100574.02;;;-1.18;98.83
51528;BME280;37612;51.768;21.590;2023-12-04T12:36:06;100567.96;;;-1.18;98.95
51528;BME280;37612;51.768;21.590;2023-12-04T12:40:09;100564.23;;;-1.18;98.75
51528;BME280;37612;51.768;21.590;2023-12-04T12:44:10;100562.92;;;-1.29;98.38
51528;BME280;37612;51.768;21.590;2023-12-04T12:48:16;100566.98;;;-1.45;98.21
51528;BME280;37612;51.768;21.590;2023-12-04T12:52:17;100569.98;;;-1.60;98.36
51528;BME280;37612;51.768;21.590;2023-12-04T12:56:19;100565.73;;;-1.78;98.24
51528;BME280;37612;51.768;21.590;2023-12-04T13:00:20;100563.27;;;-2.02;97.99
51528;BME280;37612;51.768;21.590;2023-12-04T13:04:21;100560.09;;;-2.21;98.20
51528;BME280;37612;51.768;21.590;2023-12-04T13:08:23;100564.55;;;-2.34;97.66
51528;BME280;37612;51.768;21.590;2023-12-04T13:12:24;100557.96;;;-2.40;97.92
51528;BME280;37612;51.768;21.590;2023-12-04T13:16:25;100559.34;;;-2.48;97.71
51528;BME280;37612;51.768;21.590;2023-12-04T13:20:27;100557.37;;;-2.58;97.90
51528;BME280;37612;51.768;21.590;2023-12-04T13:24:28;100550.80;;;-2.75;97.65
51528;BME280;37612;51.768;21.590;2023-12-04T13:28:29;100544.89;;;-2.93;97.55
51528;BME280;37612;51.768;21.590;2023-12-04T13:32:30;100545.00;;;-3.12;97.49
51528;BME280;37612;51.768;21.590;2023-12-04T13:36:35;100543.54;;;-3.28;97.65
51528;BME280;37612;51.768;21.590;2023-12-04T13:40:38;100540.40;;;-3.40;97.92
51528;BME280;37612;51.768;21.590;2023-12-04T13:44:39;100543.96;;;-3.50;98.10
51528;BME280;37612;51.768;21.590;2023-12-04T13:48:43;100551.32;;;-3.53;98.32
51528;BME280;37612;51.768;21.590;2023-12-04T13:52:44;100551.64;;;-3.52;98.14
51528;BME280;37612;51.768;21.590;2023-12-04T13:56:48;100550.35;;;-3.61;97.60
51528;BME280;37612;51.768;21.590;2023-12-04T14:00:57;100550.63;;;-3.82;97.31
51528;BME280;37612;51.768;21.590;2023-12-04T14:05:00;100561.02;;;-3.99;97.49
51528;BME280;37612;51.768;21.590;2023-12-04T14:09:01;100560.27;;;-4.17;97.36
51528;BME280;37612;51.768;21.590;2023-12-04T14:13:04;100563.83;;;-4.35;97.35
51528;BME280;37612;51.768;21.590;2023-12-04T14:17:06;100566.48;;;-4.45;97.46
51528;BME280;37612;51.768;21.590;2023-12-04T14:21:08;100567.42;;;-4.51;97.51
51528;BME280;37612;51.768;21.590;2023-12-04T14:25:10;100565.73;;;-4.58;97.56
51528;BME280;37612;51.768;21.590;2023-12-04T14:29:11;100566.23;;;-4.66;97.81
51528;BME280;37612;51.768;21.590;2023-12-04T14:33:14;100562.11;;;-4.77;97.93
51528;BME280;37612;51.768;21.590;2023-12-04T14:37:15;100560.54;;;-4.91;97.76
51528;BME280;37612;51.768;21.590;2023-12-04T14:41:17;100559.98;;;-5.07;97.71
51528;BME280;37612;51.768;21.590;2023-12-04T14:45:18;100565.11;;;-5.21;97.71
51528;BME280;37612;51.768;21.590;2023-12-04T14:49:19;100563.84;;;-5.31;97.84
51528;BME280;37612;51.768;21.590;2023-12-04T14:53:20;100571.83;;;-5.33;97.87
51528;BME280;37612;51.768;21.590;2023-12-04T14:57:42;100575.44;;;-5.36;97.74
51528;BME280;37612;51.768;21.590;2023-12-04T15:01:44;100570.91;;;-5.46;97.88
51528;BME280;37612;51.768;21.590;2023-12-04T15:06:24;100570.88;;;-5.58;97.88
51528;BME280;37612;51.768;21.590;2023-12-04T15:10:35;100566.50;;;-5.75;97.97
51528;BME280;37612;51.768;21.590;2023-12-04T15:14:58;100570.77;;;-5.87;97.92
51528;BME280;37612;51.768;21.590;2023-12-04T15:19:22;100573.38;;;-5.89;97.92
51528;BME280;37612;51.768;21.590;2023-12-04T15:23:23;100571.24;;;-5.88;98.09
51528;BME280;37612;51.768;21.590;2023-12-04T15:27:24;100577.17;;;-5.91;97.97
51528;BME280;37612;51.768;21.590;2023-12-04T15:31:25;100576.77;;;-5.98;98.37
51528;BME280;37612;51.768;21.590;2023-12-04T15:35:28;100571.17;;;-6.06;98.33
51528;BME280;37612;51.768;21.590;2023-12-04T15:39:29;100573.66;;;-6.15;98.52
51528;BME280;37612;51.768;21.590;2023-12-04T15:43:30;100572.08;;;-6.23;98.62
51528;BME280;37612;51.768;21.590;2023-12-04T15:47:33;100568.13;;;-6.30;98.22
51528;BME280;37612;51.768;21.590;2023-12-04T15:51:35;100570.46;;;-6.37;97.93
51528;BME280;37612;51.768;21.590;2023-12-04T15:55:38;100572.34;;;-6.43;98.26
51528;BME280;37612;51.768;21.590;2023-12-04T15:59:39;100571.52;;;-6.48;98.76
51528;BME280;37612;51.768;21.590;2023-12-04T16:03:41;100567.06;;;-6.54;98.92
51528;BME280;37612;51.768;21.590;2023-12-04T16:07:44;100567.95;;;-6.61;98.25
51528;BME280;37612;51.768;21.590;2023-12-04T16:11:46;100568.64;;;-6.67;98.19
51528;BME280;37612;51.768;21.590;2023-12-04T16:15:50;100565.36;;;-6.78;98.40
51528;BME280;37612;51.768;21.590;2023-12-04T16:19:51;100564.50;;;-6.91;98.22
51528;BME280;37612;51.768;21.590;2023-12-04T16:23:53;100568.22;;;-7.05;98.71
51528;BME280;37612;51.768;21.590;2023-12-04T16:27:58;100563.16;;;-7.11;98.72
51528;BME280;37612;51.768;21.590;2023-12-04T16:32:00;100560.20;;;-7.13;98.79
51528;BME280;37612;51.768;21.590;2023-12-04T16:36:01;100559.69;;;-7.17;98.72
51528;BME280;37612;51.768;21.590;2023-12-04T16:40:04;100560.08;;;-7.29;98.55
51528;BME280;37612;51.768;21.590;2023-12-04T16:44:05;100553.95;;;-7.45;98.17
51528;BME280;37612;51.768;21.590;2023-12-04T16:48:07;100562.12;;;-7.57;98.01
51528;BME280;37612;51.768;21.590;2023-12-04T16:52:10;100563.52;;;-7.66;98.09
51528;BME280;37612;51.768;21.590;2023-12-04T16:56:16;100561.56;;;-7.72;98.38
51528;BME280;37612;51.768;21.590;2023-12-04T17:00:18;100560.27;;;-7.80;98.86
51528;BME280;37612;51.768;21.590;2023-12-04T17:04:20;100561.64;;;-7.84;98.69
51528;BME280;37612;51.768;21.590;2023-12-04T17:08:21;100561.47;;;-7.86;99.04
51528;BME280;37612;51.768;21.590;2023-12-04T17:12:23;100552.45;;;-7.88;99.38
51528;BME280;37612;51.768;21.590;2023-12-04T17:16:24;100552.73;;;-7.92;99.55
51528;BME280;37612;51.768;21.590;2023-12-04T17:20:30;100553.29;;;-7.99;99.55
51528;BME280;37612;51.768;21.590;2023-12-04T17:24:31;100554.17;;;-7.95;99.84
51528;BME280;37612;51.768;21.590;2023-12-04T17:28:34;100553.55;;;-7.91;100.00
51528;BME280;37612;51.768;21.590;2023-12-04T17:32:35;100552.66;;;-7.87;100.00
51528;BME280;37612;51.768;21.590;2023-12-04T17:36:36;100551.77;;;-7.79;100.00
51528;BME280;37612;51.768;21.590;2023-12-04T17:40:38;100546.52;;;-7.67;100.00
51528;BME280;37612;51.768;21.590;2023-12-04T17:44:39;100549.27;;;-7.63;100.00
51528;BME280;37612;51.768;21.590;2023-12-04T17:48:40;100550.58;;;-7.51;100.00
51528;BME280;37612;51.768;21.590;2023-12-04T17:52:42;100553.27;;;-7.37;100.00
51528;BME280;37612;51.768;21.590;2023-12-04T17:56:44;100557.14;;;-7.28;100.00
51528;BME280;37612;51.768;21.590;2023-12-04T18:00:45;100558.09;;;-7.27;100.00
51528;BME280;37612;51.768;21.590;2023-12-04T18:04:47;100561.34;;;-7.25;100.00
51528;BME280;37612;51.768;21.590;2023-12-04T18:08:50;100555.55;;;-7.24;100.00
51528;BME280;37612;51.768;21.590;2023-12-04T18:12:51;100556.45;;;-7.24;100.00
51528;BME280;37612;51.768;21.590;2023-12-04T18:16:52;100553.88;;;-7.34;100.00
51528;BME280;37612;51.768;21.590;2023-12-04T18:20:54;100548.58;;;-7.36;100.00
51528;BME280;37612;51.768;21.590;2023-12-04T18:24:56;100548.47;;;-7.42;100.00
51528;BME280;37612;51.768;21.590;2023-12-04T18:28:57;100546.42;;;-7.49;100.00
51528;BME280;37612;51.768;21.590;2023-12-04T18:33:00;100542.52;;;-7.58;100.00
51528;BME280;37612;51.768;21.590;2023-12-04T18:37:11;100542.58;;;-7.61;100.00
51528;BME280;37612;51.768;21.590;2023-12-04T18:41:39;100541.26;;;-7.68;99.92
51528;BME280;37612;51.768;21.590;2023-12-04T18:50:49;100533.33;;;-7.91;99.96
51528;BME280;37612;51.768;21.590;2023-12-04T18:54:53;100539.84;;;-7.93;99.99
51528;BME280;37612;51.768;21.590;2023-12-04T18:58:54;100538.42;;;-7.92;100.00
51528;BME280;37612;51.768;21.590;2023-12-04T19:02:57;100534.59;;;-7.96;99.99
51528;BME280;37612;51.768;21.590;2023-12-04T19:11:35;100534.02;;;-8.18;99.98
51528;BME280;37612;51.768;21.590;2023-12-04T19:15:37;100532.85;;;-8.26;99.83
51528;BME280;37612;51.768;21.590;2023-12-04T19:19:39;100535.58;;;-8.32;99.37
51528;BME280;37612;51.768;21.590;2023-12-04T19:23:42;100540.29;;;-8.37;99.20
51528;BME280;37612;51.768;21.590;2023-12-04T19:27:45;100541.84;;;-8.39;99.19
51528;BME280;37612;51.768;21.590;2023-12-04T19:31:53;100538.51;;;-8.39;99.40
51528;BME280;37612;51.768;21.590;2023-12-04T19:35:54;100531.73;;;-8.36;99.67
51528;BME280;37612;51.768;21.590;2023-12-04T19:39:59;100524.09;;;-8.31;99.59
51528;BME280;37612;51.768;21.590;2023-12-04T19:44:01;100519.48;;;-8.32;99.44
51528;BME280;37612;51.768;21.590;2023-12-04T19:48:04;100517.92;;;-8.32;99.22
51528;BME280;37612;51.768;21.590;2023-12-04T19:52:06;100516.25;;;-8.28;99.37
51528;BME280;37612;51.768;21.590;2023-12-04T19:56:09;100516.21;;;-8.27;99.29
51528;BME280;37612;51.768;21.590;2023-12-04T20:00:11;100516.30;;;-8.31;98.81
51528;BME280;37612;51.768;21.590;2023-12-04T20:04:15;100518.14;;;-8.37;98.46
51528;BME280;37612;51.768;21.590;2023-12-04T20:08:19;100513.15;;;-8.39;98.85
51528;BME280;37612;51.768;21.590;2023-12-04T20:12:21;100513.48;;;-8.37;99.05
51528;BME280;37612;51.768;21.590;2023-12-04T20:16:23;100510.31;;;-8.38;99.33
51528;BME280;37612;51.768;21.590;2023-12-04T20:20:24;100507.55;;;-8.38;99.19
51528;BME280;37612;51.768;21.590;2023-12-04T20:24:26;100508.27;;;-8.36;99.44
51528;BME280;37612;51.768;21.590;2023-12-04T20:29:31;100509.54;;;-8.35;99.05
51528;BME280;37612;51.768;21.590;2023-12-04T20:34:21;100507.91;;;-8.36;99.15
51528;BME280;37612;51.768;21.590;2023-12-04T20:38:24;100504.59;;;-8.40;98.89
51528;BME280;37612;51.768;21.590;2023-12-04T20:42:28;100501.36;;;-8.40;98.94
51528;BME280;37612;51.768;21.590;2023-12-04T20:46:30;100496.08;;;-8.41;98.81
51528;BME280;37612;51.768;21.590;2023-12-04T20:50:31;100498.45;;;-8.41;98.80
51528;BME280;37612;51.768;21.590;2023-12-04T20:54:33;100497.63;;;-8.43;98.61